Terminal Aerodrome Forecast
Issued by NWS Cleveland, OH

Home | Current Version | Previous Version | Graphics & Text | Print | Product List | Glossary Off
Versions: 1 2 3 4 5 6 7 8 9 10 11 12 13 14 15 16

793
FTUS41 KCLE 240524
TAFYNG
TAF
KYNG 240524Z 2406/2506 13011KT P6SM VCSH OVC060
     FM241800 13010G18KT 4SM SHRA OVC025
     FM242300 11009KT 6SM -SHRA BR OVC020=

USA.gov is the U.S. government's official web portal to all federal, state and local government web resources and services.